Time;durP1;ratioP1;P1;durP2;ratioP2;P2;SDS_P1;SDS_P2;PMS_P1;PMS_P2;Temp;Humidity;BMP_temperature;BMP_pressure;BME280_temperature;BME280_humidity;BME280_pressure;Samples;Min_cycle;Max_cycle;Signal;HPM_P1;HPM_P2
2023/07/25 00:00:29;;;;;;;19.80;15.25;;;20.30;99.90;;;;;;5015058;28;20037;-78
2023/07/25 00:02:55;;;;;;;11.13;8.77;;;20.20;99.90;;;;;;5015739;28;20037;-78
2023/07/25 00:05:21;;;;;;;17.45;12.73;;;20.10;99.90;;;;;;5015321;28;20042;-78
2023/07/25 00:07:47;;;;;;;13.95;8.40;;;20.10;99.90;;;;;;5015456;28;20041;-77
2023/07/25 00:10:13;;;;;;;12.73;10.05;;;20.10;99.90;;;;;;5015397;28;20026;-79
2023/07/25 00:12:39;;;;;;;17.67;15.80;;;20.10;99.90;;;;;;5015608;28;20034;-78
2023/07/25 00:15:06;;;;;;;16.77;15.07;;;20.10;99.90;;;;;;5014078;28;20030;-78
2023/07/25 00:17:32;;;;;;;19.70;17.85;;;20.10;99.90;;;;;;5014990;28;20042;-79
2023/07/25 00:19:58;;;;;;;20.73;18.65;;;20.10;99.90;;;;;;5015661;28;20478;-78
2023/07/25 00:22:24;;;;;;;22.25;20.17;;;20.10;99.90;;;;;;5014757;28;20034;-78
2023/07/25 00:24:50;;;;;;;31.75;29.35;;;20.10;99.90;;;;;;5015341;28;20034;-78
2023/07/25 00:27:17;;;;;;;17.58;15.77;;;20.10;99.90;;;;;;5015113;28;20041;-78
2023/07/25 00:29:43;;;;;;;36.03;33.67;;;20.00;99.90;;;;;;5015358;28;20391;-78
2023/07/25 00:32:09;;;;;;;18.42;16.55;;;20.00;99.90;;;;;;5014542;28;20030;-78
2023/07/25 00:34:35;;;;;;;15.85;14.43;;;20.00;99.90;;;;;;5015063;28;20383;-78
2023/07/25 00:37:01;;;;;;;22.25;20.52;;;20.00;99.90;;;;;;5014167;28;20037;-79
2023/07/25 00:39:27;;;;;;;14.15;12.80;;;20.00;99.90;;;;;;5014753;28;20041;-79
2023/07/25 00:41:53;;;;;;;17.63;15.82;;;19.90;99.90;;;;;;5014803;28;20041;-78
2023/07/25 00:44:19;;;;;;;14.65;13.38;;;19.80;99.90;;;;;;5014925;28;20034;-78
2023/07/25 00:46:45;;;;;;;16.38;14.75;;;19.80;99.90;;;;;;5014588;28;20602;-78
2023/07/25 00:49:11;;;;;;;19.02;17.33;;;19.80;99.90;;;;;;5014899;28;20026;-78
2023/07/25 00:51:37;;;;;;;12.38;11.13;;;19.80;99.90;;;;;;5014291;28;20391;-78
2023/07/25 00:54:03;;;;;;;10.48;8.88;;;19.80;99.90;;;;;;5015036;28;20072;-78
2023/07/25 00:56:30;;;;;;;15.48;14.07;;;19.60;99.90;;;;;;5014474;28;20041;-78
2023/07/25 00:58:56;;;;;;;21.92;20.02;;;19.60;99.90;;;;;;5014699;28;20391;-78
2023/07/25 01:01:22;;;;;;;16.55;15.35;;;19.50;99.90;;;;;;5014028;28;20030;-78
2023/07/25 01:03:48;;;;;;;16.70;15.25;;;19.50;99.90;;;;;;5014698;28;20468;-78
2023/07/25 01:06:14;;;;;;;12.45;11.32;;;19.50;99.90;;;;;;5012537;28;20479;-78
2023/07/25 01:08:48;;;;;;;12.43;11.25;;;19.50;99.90;;;;;;5014650;28;20048;-78
2023/07/25 01:11:14;;;;;;;11.35;10.25;;;19.40;99.90;;;;;;5014751;28;20050;-79
2023/07/25 01:13:40;;;;;;;11.85;10.65;;;19.40;99.90;;;;;;5014618;28;20022;-78
2023/07/25 01:16:06;;;;;;;10.68;9.18;;;19.50;99.90;;;;;;5013491;28;20037;-78
2023/07/25 01:18:33;;;;;;;14.57;13.25;;;19.40;99.90;;;;;;5012957;28;20042;-78
2023/07/25 01:20:59;;;;;;;12.40;11.35;;;19.40;99.90;;;;;;5012509;28;20037;-78
2023/07/25 01:23:25;;;;;;;11.88;11.02;;;19.40;99.90;;;;;;5013121;28;20029;-78
2023/07/25 01:25:51;;;;;;;12.13;11.00;;;19.50;99.90;;;;;;5012744;28;20041;-78
2023/07/25 01:28:17;;;;;;;13.40;12.25;;;19.50;99.90;;;;;;5014317;28;20045;-78
2023/07/25 01:30:43;;;;;;;12.10;11.10;;;19.40;99.90;;;;;;5013402;28;20030;-78
2023/07/25 01:33:09;;;;;;;10.65;9.90;;;19.30;99.90;;;;;;5013951;28;20411;-78
2023/07/25 01:35:35;;;;;;;10.50;9.60;;;19.20;99.90;;;;;;5013540;28;20025;-79
2023/07/25 01:38:01;;;;;;;16.92;15.60;;;19.10;99.90;;;;;;5013751;28;20049;-78
2023/07/25 01:40:28;;;;;;;10.82;10.02;;;19.10;99.90;;;;;;5013666;28;20040;-78
2023/07/25 01:42:54;;;;;;;9.68;8.90;;;19.10;99.90;;;;;;5013728;28;20394;-78
2023/07/25 01:45:20;;;;;;;9.63;8.73;;;19.20;99.90;;;;;;5013209;28;20026;-78
2023/07/25 01:47:46;;;;;;;7.32;6.72;;;19.10;99.90;;;;;;5012927;28;20387;-78
2023/07/25 01:50:12;;;;;;;8.95;8.25;;;19.20;99.90;;;;;;5012802;28;20042;-79
2023/07/25 01:52:38;;;;;;;10.93;10.20;;;19.20;99.90;;;;;;5013610;28;20045;-78
2023/07/25 01:55:05;;;;;;;10.07;9.10;;;19.20;99.90;;;;;;5013777;28;20022;-78
2023/07/25 01:57:31;;;;;;;8.73;8.02;;;19.10;99.90;;;;;;5012943;28;20037;-78
2023/07/25 01:59:57;;;;;;;8.90;8.20;;;19.10;99.90;;;;;;5011592;28;20053;-78
2023/07/25 02:02:23;;;;;;;16.48;15.50;;;19.10;99.90;;;;;;5008385;28;20030;-78
2023/07/25 02:04:49;;;;;;;10.32;9.63;;;19.10;99.90;;;;;;5009146;28;20038;-78
2023/07/25 02:07:15;;;;;;;8.20;7.63;;;19.10;99.90;;;;;;5011922;28;20037;-78
2023/07/25 02:09:41;;;;;;;10.15;9.55;;;19.00;99.90;;;;;;5012656;28;20065;-78
2023/07/25 02:12:08;;;;;;;10.27;9.57;;;19.00;99.90;;;;;;5011827;28;20029;-78
2023/07/25 02:14:34;;;;;;;9.35;8.65;;;18.90;99.90;;;;;;5010929;28;20391;-78
2023/07/25 02:17:00;;;;;;;8.38;7.78;;;18.90;99.90;;;;;;5011356;28;20026;-78
2023/07/25 02:19:26;;;;;;;14.68;13.77;;;18.90;99.90;;;;;;5011526;28;20398;-78
2023/07/25 02:21:52;;;;;;;12.60;11.70;;;18.90;99.90;;;;;;5011707;28;20032;-78
2023/07/25 02:24:18;;;;;;;5.35;4.95;;;18.80;99.90;;;;;;5012042;28;20360;-78
2023/07/25 02:26:44;;;;;;;5.15;4.40;;;18.80;99.90;;;;;;5011610;28;20041;-78
2023/07/25 02:29:10;;;;;;;4.30;3.90;;;18.80;99.90;;;;;;5012077;28;20053;-78
2023/07/25 02:31:36;;;;;;;5.63;3.80;;;18.80;99.90;;;;;;5011030;28;20488;-78
2023/07/25 02:34:02;;;;;;;3.88;3.50;;;18.90;99.90;;;;;;5011361;28;20038;-78
2023/07/25 02:36:29;;;;;;;4.80;3.85;;;18.80;99.90;;;;;;5011794;28;20037;-78
2023/07/25 02:38:55;;;;;;;4.18;3.88;;;18.70;99.90;;;;;;5012747;28;20060;-78
2023/07/25 02:41:21;;;;;;;5.10;4.15;;;18.70;99.90;;;;;;5012621;28;20033;-77
2023/07/25 02:43:47;;;;;;;4.35;3.88;;;18.70;99.90;;;;;;5013301;28;20057;-78
2023/07/25 02:46:13;;;;;;;6.47;3.92;;;18.70;99.90;;;;;;5012545;28;20483;-78
2023/07/25 02:48:39;;;;;;;4.25;3.90;;;18.70;99.90;;;;;;5012326;28;20038;-78
2023/07/25 02:51:05;;;;;;;4.20;3.90;;;18.80;99.90;;;;;;5012497;28;20533;-78
2023/07/25 02:53:31;;;;;;;4.38;3.70;;;18.70;99.90;;;;;;5012723;28;20037;-77
2023/07/25 02:55:57;;;;;;;4.07;3.78;;;18.70;99.90;;;;;;5012652;28;20435;-78
2023/07/25 02:58:23;;;;;;;4.80;3.88;;;18.70;99.90;;;;;;5012759;28;20042;-78
2023/07/25 03:00:50;;;;;;;4.40;4.00;;;18.80;99.90;;;;;;5011649;28;20431;-78
2023/07/25 03:03:16;;;;;;;4.47;4.07;;;18.80;99.90;;;;;;5012448;28;20383;-79
2023/07/25 03:05:42;;;;;;;5.72;5.13;;;18.70;99.90;;;;;;5012347;28;20040;-78
2023/07/25 03:08:08;;;;;;;4.82;4.43;;;18.70;99.90;;;;;;5012599;28;20369;-78
2023/07/25 03:10:34;;;;;;;4.70;4.10;;;18.70;99.90;;;;;;5011103;28;20033;-78
2023/07/25 03:13:00;;;;;;;5.00;4.60;;;18.70;99.90;;;;;;5012607;28;20387;-78
2023/07/25 03:15:26;;;;;;;5.40;4.43;;;18.70;99.90;;;;;;5011806;28;20022;-78
2023/07/25 03:17:54;;;;;;;5.57;4.72;;;18.70;99.90;;;;;;5010906;28;20475;-78
2023/07/25 03:20:20;;;;;;;5.55;4.32;;;18.70;99.90;;;;;;5012160;28;20482;-79
2023/07/25 03:22:46;;;;;;;5.88;4.97;;;18.70;99.90;;;;;;5012421;28;20033;-78
2023/07/25 03:25:12;;;;;;;7.60;6.93;;;18.70;99.90;;;;;;5010964;28;20026;-78
2023/07/25 03:27:38;;;;;;;5.25;4.85;;;18.70;99.90;;;;;;5012359;28;20030;-78
2023/07/25 03:30:05;;;;;;;6.22;5.63;;;18.80;99.90;;;;;;5011997;28;20034;-77
2023/07/25 03:32:31;;;;;;;7.47;5.32;;;18.80;99.90;;;;;;5010377;28;20029;-78
2023/07/25 03:34:57;;;;;;;5.78;5.28;;;18.80;99.90;;;;;;5012358;28;20030;-79
2023/07/25 03:37:23;;;;;;;5.20;4.75;;;18.80;99.90;;;;;;5012180;28;20026;-78
2023/07/25 03:39:49;;;;;;;8.30;5.82;;;18.80;99.90;;;;;;5011346;28;20121;-77
2023/07/25 03:42:15;;;;;;;6.68;6.18;;;18.80;99.90;;;;;;5011886;28;20038;-79
2023/07/25 03:44:41;;;;;;;7.47;6.90;;;18.80;99.90;;;;;;5012231;28;20410;-79
2023/07/25 03:47:07;;;;;;;6.28;5.78;;;18.80;99.90;;;;;;5011226;28;20034;-78
2023/07/25 03:49:33;;;;;;;11.27;10.27;;;18.70;99.90;;;;;;5010822;28;20046;-78
2023/07/25 03:51:59;;;;;;;10.57;9.88;;;18.70;99.90;;;;;;5012018;28;20026;-78
2023/07/25 03:54:26;;;;;;;9.30;8.70;;;18.70;99.90;;;;;;5012359;28;20057;-79
2023/07/25 03:56:52;;;;;;;10.13;9.52;;;18.60;99.90;;;;;;5011415;28;20034;-78
2023/07/25 03:59:18;;;;;;;9.18;8.48;;;18.60;99.90;;;;;;5011004;28;20038;-78
2023/07/25 04:01:44;;;;;;;11.88;11.15;;;18.60;99.90;;;;;;5011389;28;20407;-78
2023/07/25 04:04:10;;;;;;;8.43;7.82;;;18.60;99.90;;;;;;5012137;28;20041;-78
2023/07/25 04:06:39;;;;;;;9.82;9.32;;;18.50;99.90;;;;;;5011617;28;20062;-78
2023/07/25 04:09:06;;;;;;;10.40;9.70;;;18.50;99.90;;;;;;5012094;28;20030;-78
2023/07/25 04:11:32;;;;;;;10.32;9.63;;;18.50;99.90;;;;;;5012003;28;20040;-79
2023/07/25 04:13:58;;;;;;;12.95;12.15;;;18.50;99.90;;;;;;5014796;28;20483;-78
2023/07/25 04:16:24;;;;;;;11.52;10.82;;;18.50;99.90;;;;;;5014829;28;20030;-78
2023/07/25 04:18:50;;;;;;;14.75;13.75;;;18.40;99.90;;;;;;5015420;28;20068;-78
2023/07/25 04:21:16;;;;;;;11.68;10.88;;;18.40;99.90;;;;;;5015660;28;20022;-78
2023/07/25 04:23:43;;;;;;;10.07;7.88;;;18.30;99.90;;;;;;5015624;28;20041;-78
2023/07/25 04:26:09;;;;;;;7.82;7.43;;;18.40;99.90;;;;;;5015564;28;20123;-78
2023/07/25 04:28:35;;;;;;;8.45;7.55;;;18.40;99.90;;;;;;5014241;28;20029;-78
2023/07/25 04:31:01;;;;;;;7.53;6.85;;;18.30;99.90;;;;;;5022586;28;20026;-78
2023/07/25 04:33:27;;;;;;;9.82;9.07;;;18.30;99.90;;;;;;5032071;28;20033;-79
2023/07/25 04:35:53;;;;;;;7.43;6.85;;;18.30;99.90;;;;;;5015182;28;20036;-78
2023/07/25 04:38:19;;;;;;;5.85;5.35;;;18.30;99.90;;;;;;5013845;28;20045;-79
2023/07/25 04:40:46;;;;;;;5.28;4.78;;;18.40;99.90;;;;;;5015034;28;20395;-78
2023/07/25 04:43:12;;;;;;;5.15;4.75;;;18.40;99.90;;;;;;5014840;28;20022;-78
2023/07/25 04:45:38;;;;;;;13.57;12.57;;;18.40;99.90;;;;;;5014725;28;20521;-78
2023/07/25 04:48:04;;;;;;;8.27;7.55;;;18.30;99.90;;;;;;5014948;28;20056;-78
2023/07/25 04:50:31;;;;;;;10.40;9.40;;;18.30;99.90;;;;;;5015391;28;20048;-77
2023/07/25 04:52:57;;;;;;;10.77;10.07;;;18.30;99.90;;;;;;5015195;28;20049;-79
2023/07/25 04:55:23;;;;;;;10.40;9.60;;;18.20;99.90;;;;;;5014968;28;20072;-79
2023/07/25 04:57:50;;;;;;;9.45;8.60;;;18.20;99.90;;;;;;5014486;28;20036;-77
2023/07/25 05:00:16;;;;;;;7.90;7.20;;;18.20;99.90;;;;;;5012871;28;20038;-78
2023/07/25 05:02:42;;;;;;;9.18;8.40;;;18.20;99.90;;;;;;5014705;28;20368;-78
2023/07/25 05:05:08;;;;;;;11.63;10.75;;;18.20;99.90;;;;;;5015264;28;20041;-77
2023/07/25 05:07:34;;;;;;;12.20;11.10;;;18.30;99.90;;;;;;5014566;28;20026;-78
2023/07/25 05:10:00;;;;;;;12.30;11.50;;;18.30;99.90;;;;;;5014648;28;20026;-78
2023/07/25 05:12:27;;;;;;;10.48;9.57;;;18.20;99.90;;;;;;5014251;28;20463;-78
2023/07/25 05:14:53;;;;;;;11.80;11.10;;;18.10;99.90;;;;;;5014628;28;20042;-78
2023/07/25 05:17:19;;;;;;;12.70;11.77;;;18.10;99.90;;;;;;5013979;28;20044;-79
2023/07/25 05:19:45;;;;;;;11.30;10.30;;;18.10;99.90;;;;;;5014463;28;20471;-78
2023/07/25 05:22:11;;;;;;;12.50;11.75;;;18.00;99.90;;;;;;5014444;28;20471;-79
2023/07/25 05:24:37;;;;;;;9.52;8.82;;;18.00;99.90;;;;;;5013987;28;20034;-78
2023/07/25 05:27:03;;;;;;;10.70;9.48;;;18.00;99.90;;;;;;5014334;28;20028;-78
2023/07/25 05:29:30;;;;;;;9.90;9.00;;;18.10;99.90;;;;;;5014338;28;20308;-78
2023/07/25 05:31:56;;;;;;;9.82;8.77;;;18.10;99.90;;;;;;5029273;28;20029;-78
2023/07/25 05:34:22;;;;;;;9.05;8.32;;;18.10;99.90;;;;;;5023515;28;20041;-78
2023/07/25 05:36:48;;;;;;;8.95;8.18;;;18.10;99.90;;;;;;5014158;28;20033;-78
2023/07/25 05:39:14;;;;;;;8.20;7.60;;;18.10;99.90;;;;;;5013964;28;20475;-78
2023/07/25 05:41:42;;;;;;;8.55;7.63;;;18.10;99.90;;;;;;5013722;28;20030;-78
2023/07/25 05:44:09;;;;;;;11.35;8.50;;;18.10;99.90;;;;;;5014113;28;20041;-78
2023/07/25 05:46:35;;;;;;;8.73;7.93;;;18.10;99.90;;;;;;5013701;28;20037;-79
2023/07/25 05:49:01;;;;;;;8.38;7.68;;;18.10;99.90;;;;;;5013865;28;20033;-78
2023/07/25 05:51:27;;;;;;;8.43;7.72;;;18.10;99.90;;;;;;5013628;28;20057;-78
2023/07/25 05:53:53;;;;;;;7.78;7.07;;;18.10;99.90;;;;;;5014135;28;20025;-78
2023/07/25 05:56:19;;;;;;;7.72;7.00;;;18.10;99.90;;;;;;5013348;28;20030;-78
2023/07/25 05:58:45;;;;;;;7.40;6.80;;;18.20;99.90;;;;;;5013555;28;20038;-78
2023/07/25 06:01:11;;;;;;;6.88;6.13;;;18.10;99.90;;;;;;5013222;28;20041;-78
2023/07/25 06:03:37;;;;;;;9.15;6.65;;;18.10;99.90;;;;;;5012557;28;20041;-78
2023/07/25 06:06:04;;;;;;;6.93;6.25;;;18.20;99.90;;;;;;5013504;28;20037;-78
2023/07/25 06:08:30;;;;;;;7.10;6.47;;;18.10;99.90;;;;;;5013531;28;20217;-78
2023/07/25 06:10:56;;;;;;;8.50;5.90;;;18.10;99.90;;;;;;5013225;28;20034;-78
2023/07/25 06:13:22;;;;;;;7.70;6.90;;;18.20;99.90;;;;;;5013429;28;20026;-78
2023/07/25 06:15:48;;;;;;;10.00;6.53;;;18.20;99.90;;;;;;5012921;28;20398;-78
2023/07/25 06:18:14;;;;;;;12.60;8.18;;;18.20;99.90;;;;;;5013150;28;20045;-78
2023/07/25 06:20:40;;;;;;;9.07;8.20;;;18.10;99.90;;;;;;5013183;28;20034;-79
2023/07/25 06:23:06;;;;;;;9.70;8.80;;;18.00;99.90;;;;;;5013804;28;20038;-78
2023/07/25 06:25:33;;;;;;;11.68;8.35;;;18.00;99.90;;;;;;5011927;28;20041;-78
2023/07/25 06:27:59;;;;;;;10.48;8.65;;;18.00;99.90;;;;;;5011988;28;20034;-79
2023/07/25 06:30:25;;;;;;;9.25;8.27;;;18.00;99.90;;;;;;5016053;28;20028;-77
2023/07/25 06:32:51;;;;;;;8.40;7.60;;;18.00;99.90;;;;;;5032751;28;20052;-79
2023/07/25 06:35:17;;;;;;;9.95;8.05;;;18.00;99.90;;;;;;5032191;28;20022;-79
2023/07/25 06:37:43;;;;;;;8.95;8.00;;;18.00;99.90;;;;;;5032828;28;20041;-79
2023/07/25 06:40:09;;;;;;;7.95;7.35;;;18.00;99.90;;;;;;5032334;28;20189;-78
2023/07/25 06:42:35;;;;;;;8.80;8.10;;;18.20;99.90;;;;;;5032710;28;20048;-78
2023/07/25 06:45:02;;;;;;;9.90;9.10;;;18.30;99.90;;;;;;5033155;28;20040;-78
2023/07/25 06:47:28;;;;;;;11.65;9.88;;;18.40;99.90;;;;;;5031709;28;20036;-78
2023/07/25 06:49:54;;;;;;;10.60;9.77;;;18.40;99.90;;;;;;5032221;28;20125;-78
2023/07/25 06:52:21;;;;;;;11.55;8.70;;;18.50;99.90;;;;;;5032946;28;20034;-78
2023/07/25 06:54:47;;;;;;;9.45;8.65;;;18.40;99.90;;;;;;5032340;28;20041;-79
2023/07/25 06:57:13;;;;;;;8.98;8.15;;;18.40;99.90;;;;;;5032960;28;20390;-78
2023/07/25 06:59:39;;;;;;;9.80;8.90;;;18.40;99.90;;;;;;5032400;28;20053;-78
2023/07/25 07:02:05;;;;;;;9.23;8.23;;;18.40;99.90;;;;;;5031992;28;20044;-78
2023/07/25 07:04:31;;;;;;;10.38;8.45;;;18.20;99.90;;;;;;5032402;28;20032;-78
2023/07/25 07:06:57;;;;;;;9.10;8.27;;;18.30;99.90;;;;;;5032545;28;20033;-78
2023/07/25 07:09:23;;;;;;;9.35;8.48;;;18.20;99.90;;;;;;5031946;28;20033;-78
2023/07/25 07:11:50;;;;;;;10.93;8.10;;;18.40;99.90;;;;;;5032479;28;20029;-78
2023/07/25 07:14:16;;;;;;;10.20;7.93;;;18.50;99.90;;;;;;5032588;28;20399;-78
2023/07/25 07:16:42;;;;;;;10.70;9.80;;;18.70;99.90;;;;;;5031844;28;20041;-78
2023/07/25 07:19:08;;;;;;;9.80;9.00;;;18.90;99.90;;;;;;5032260;28;20482;-78
2023/07/25 07:21:34;;;;;;;9.07;8.00;;;19.10;99.90;;;;;;5032287;28;20021;-78
2023/07/25 07:24:00;;;;;;;9.45;8.55;;;19.20;99.90;;;;;;5032147;28;20490;-78
2023/07/25 07:26:26;;;;;;;12.85;9.15;;;19.20;99.90;;;;;;5032476;28;20029;-79
2023/07/25 07:28:52;;;;;;;19.45;9.57;;;19.30;99.90;;;;;;5032270;28;20038;-78
2023/07/25 07:31:23;;;;;;;15.77;9.45;;;19.30;99.90;;;;;;5031911;28;20501;-78
2023/07/25 07:33:49;;;;;;;11.13;9.98;;;19.20;99.90;;;;;;5032540;28;20405;-77
2023/07/25 07:36:15;;;;;;;11.10;10.25;;;19.20;99.90;;;;;;5032026;28;20033;-79
2023/07/25 07:38:41;;;;;;;10.57;9.57;;;19.20;99.90;;;;;;5031778;28;20394;-79
2023/07/25 07:41:07;;;;;;;13.27;12.18;;;19.30;99.90;;;;;;5032233;28;20038;-78
2023/07/25 07:43:33;;;;;;;14.60;13.13;;;19.40;99.90;;;;;;5031768;28;20374;-77
2023/07/25 07:45:59;;;;;;;14.60;13.80;;;19.40;99.90;;;;;;5031724;28;20033;-77
2023/07/25 07:48:25;;;;;;;13.50;12.60;;;19.40;99.90;;;;;;5035349;28;20049;-77
2023/07/25 07:50:51;;;;;;;13.57;12.57;;;19.50;99.90;;;;;;5035800;28;20054;-77
2023/07/25 07:53:18;;;;;;;15.63;14.57;;;19.50;99.90;;;;;;5035588;28;20033;-78
2023/07/25 07:55:44;;;;;;;14.80;13.75;;;19.50;99.90;;;;;;5035811;28;20030;-78
2023/07/25 07:58:10;;;;;;;12.50;11.70;;;19.50;99.90;;;;;;5035537;28;20033;-77
2023/07/25 08:00:36;;;;;;;14.18;13.10;;;19.60;99.90;;;;;;5034686;28;20044;-78
2023/07/25 08:03:02;;;;;;;14.45;13.35;;;19.70;99.90;;;;;;5035712;28;20025;-78
2023/07/25 08:05:28;;;;;;;13.32;12.50;;;19.70;99.90;;;;;;5035438;28;20030;-78
2023/07/25 08:07:54;;;;;;;12.63;11.70;;;19.70;99.90;;;;;;5035162;28;20032;-78
2023/07/25 08:10:22;;;;;;;13.38;12.18;;;19.50;99.90;;;;;;5035639;28;20025;-78
2023/07/25 08:12:48;;;;;;;12.20;11.00;;;19.60;99.90;;;;;;5035442;28;20018;-78
2023/07/25 08:15:15;;;;;;;12.25;11.35;;;19.60;99.90;;;;;;5034970;28;20040;-78
2023/07/25 08:17:41;;;;;;;12.80;11.45;;;19.50;99.90;;;;;;5035223;28;20041;-78
2023/07/25 08:20:07;;;;;;;13.30;12.05;;;19.60;99.90;;;;;;5035306;28;20492;-77
2023/07/25 08:22:33;;;;;;;13.45;12.45;;;19.50;99.90;;;;;;5035033;28;20383;-78
2023/07/25 08:24:59;;;;;;;13.48;12.48;;;19.50;99.90;;;;;;5035260;28;20033;-78
2023/07/25 08:27:25;;;;;;;12.48;11.57;;;19.50;99.90;;;;;;5035196;28;20359;-77
2023/07/25 08:29:51;;;;;;;13.55;12.55;;;19.60;99.90;;;;;;5034956;28;20033;-77
2023/07/25 08:32:17;;;;;;;13.32;12.27;;;19.60;99.90;;;;;;5034516;28;20027;-78
2023/07/25 08:34:44;;;;;;;14.10;13.20;;;19.70;99.90;;;;;;5034937;28;20036;-77
2023/07/25 08:37:10;;;;;;;14.43;13.55;;;19.70;99.90;;;;;;5034763;28;20045;-77
2023/07/25 08:39:36;;;;;;;14.38;13.27;;;19.60;99.90;;;;;;5034828;28;20038;-78
2023/07/25 08:42:06;;;;;;;14.23;13.13;;;19.50;99.90;;;;;;5035102;28;20033;-78
2023/07/25 08:44:33;;;;;;;13.73;12.50;;;19.50;99.90;;;;;;5035139;28;20052;-78
2023/07/25 08:46:59;;;;;;;13.18;12.27;;;19.50;99.90;;;;;;5034584;28;20276;-77
2023/07/25 08:49:25;;;;;;;13.10;11.98;;;19.60;99.90;;;;;;5033260;28;20026;-78
2023/07/25 08:51:54;;;;;;;13.43;12.23;;;19.60;99.90;;;;;;5033531;28;20029;-77
2023/07/25 08:54:38;;;;;;;13.82;12.85;;;19.50;99.90;;;;;;5033617;28;20045;-78
2023/07/25 08:57:05;;;;;;;13.85;12.77;;;19.60;99.90;;;;;;5034826;28;20375;-78
2023/07/25 08:59:31;;;;;;;14.20;13.13;;;19.50;99.90;;;;;;5033442;28;20398;-78
2023/07/25 09:01:57;;;;;;;13.60;12.80;;;19.60;99.90;;;;;;5032878;28;20029;-77
2023/07/25 09:04:25;;;;;;;13.60;12.45;;;19.50;99.90;;;;;;5033042;28;20375;-78
2023/07/25 09:06:51;;;;;;;13.40;12.55;;;19.50;99.90;;;;;;5033348;28;20025;-77
2023/07/25 09:09:18;;;;;;;13.27;12.15;;;19.50;99.90;;;;;;5033199;28;20076;-78
2023/07/25 09:11:44;;;;;;;13.82;12.90;;;19.60;99.90;;;;;;5034551;28;20025;-78
2023/07/25 09:14:13;;;;;;;14.02;13.02;;;19.60;99.90;;;;;;5034008;28;20037;-78
2023/07/25 09:16:40;;;;;;;14.35;13.45;;;19.60;99.90;;;;;;5033649;28;20052;-77
2023/07/25 09:19:06;;;;;;;14.27;13.27;;;19.70;99.90;;;;;;5033936;28;20055;-78
2023/07/25 09:21:44;;;;;;;14.57;13.63;;;19.70;99.90;;;;;;5034003;28;20089;-78
2023/07/25 09:24:11;;;;;;;12.82;11.93;;;19.60;99.90;;;;;;5033049;28;20029;-78
2023/07/25 09:26:39;;;;;;;13.18;12.18;;;19.60;99.90;;;;;;5032231;28;20486;-77
2023/07/25 09:29:05;;;;;;;13.43;12.48;;;19.70;99.90;;;;;;5034249;28;20045;-78
2023/07/25 09:31:31;;;;;;;13.25;12.23;;;19.80;99.90;;;;;;5033635;28;20514;-78
2023/07/25 09:33:57;;;;;;;14.38;13.35;;;19.80;99.90;;;;;;5032249;28;20045;-78
2023/07/25 09:36:24;;;;;;;13.10;12.05;;;19.80;99.90;;;;;;5033942;28;20471;-77
2023/07/25 09:38:54;;;;;;;14.05;13.05;;;19.80;99.90;;;;;;5016117;28;20406;-77
2023/07/25 09:41:21;;;;;;;15.95;14.75;;;19.90;99.90;;;;;;5032332;28;20413;-78
2023/07/25 09:43:48;;;;;;;14.02;13.07;;;20.00;99.90;;;;;;5033853;28;20354;-78
2023/07/25 09:46:14;;;;;;;15.02;13.80;;;19.90;99.90;;;;;;5033235;28;20030;-78
2023/07/25 09:48:44;;;;;;;14.15;13.18;;;20.00;99.90;;;;;;5032224;28;20035;-77
2023/07/25 09:51:11;;;;;;;14.53;13.33;;;20.00;99.90;;;;;;5032409;28;20041;-76
2023/07/25 09:53:37;;;;;;;15.20;14.10;;;20.10;99.90;;;;;;5033921;28;20052;-77
2023/07/25 09:56:04;;;;;;;15.15;14.05;;;20.10;99.90;;;;;;5033966;28;20041;-78
2023/07/25 09:58:30;;;;;;;15.90;14.88;;;20.20;99.90;;;;;;5033459;28;20025;-77
2023/07/25 10:00:57;;;;;;;14.50;13.60;;;20.30;99.90;;;;;;5032867;28;20049;-78
2023/07/25 10:03:23;;;;;;;16.70;15.60;;;20.50;99.90;;;;;;5014988;28;20055;-78
2023/07/25 10:05:49;;;;;;;16.02;14.93;;;20.50;99.90;;;;;;5032230;28;20459;-76
2023/07/25 10:08:18;;;;;;;15.82;14.82;;;20.50;99.90;;;;;;5031955;28;20033;-78
2023/07/25 10:10:45;;;;;;;16.95;15.65;;;20.60;99.90;;;;;;5031070;28;20036;-78
2023/07/25 10:13:11;;;;;;;18.33;17.00;;;20.70;99.90;;;;;;5031936;28;20021;-78
2023/07/25 10:15:37;;;;;;;17.48;16.27;;;20.90;99.90;;;;;;5032774;28;20032;-78
2023/07/25 10:18:04;;;;;;;18.70;17.40;;;21.20;99.90;;;;;;5031593;28;20030;-78
2023/07/25 10:20:30;;;;;;;19.25;18.15;;;21.40;99.90;;;;;;5033102;28;20490;-78
2023/07/25 10:23:08;;;;;;;17.70;16.50;;;21.50;99.90;;;;;;5032222;28;20055;-78
2023/07/25 10:25:35;;;;;;;20.13;18.70;;;21.50;99.90;;;;;;5033029;28;20025;-78
2023/07/25 10:28:02;;;;;;;18.73;17.48;;;21.60;99.90;;;;;;5032861;28;20033;-77
2023/07/25 10:30:29;;;;;;;25.48;24.05;;;21.80;99.90;;;;;;5032741;28;20026;-78
2023/07/25 10:32:59;;;;;;;21.50;20.05;;;22.00;99.90;;;;;;5032681;28;20041;-78
2023/07/25 10:35:53;;;;;;;24.05;22.55;;;22.30;99.90;;;;;;5033347;28;20041;-78
2023/07/25 10:38:34;;;;;;;25.13;23.65;;;22.40;99.90;;;;;;5032443;28;20038;-78
2023/07/25 10:41:09;;;;;;;25.95;24.35;;;22.50;99.90;;;;;;5032598;28;20048;-78
2023/07/25 10:43:55;;;;;;;24.17;22.83;;;22.60;99.90;;;;;;5032957;28;20064;-78
2023/07/25 10:46:28;;;;;;;28.13;26.42;;;22.60;99.90;;;;;;5032072;28;20037;-78
2023/07/25 10:48:58;;;;;;;21.10;19.70;;;22.70;99.90;;;;;;5032341;28;20394;-78
2023/07/25 10:51:24;;;;;;;20.35;18.92;;;22.70;99.90;;;;;;5032490;28;20505;-78
2023/07/25 10:54:10;;;;;;;21.23;19.83;;;22.70;99.90;;;;;;5031458;28;20063;-78
2023/07/25 10:56:37;;;;;;;24.98;23.55;;;22.60;99.90;;;;;;5032369;28;20068;-78
2023/07/25 10:59:10;;;;;;;24.60;23.20;;;22.30;99.90;;;;;;5032693;28;20387;-77
2023/07/25 11:01:38;;;;;;;19.98;18.67;;;22.00;99.90;;;;;;5031756;28;20379;-78
2023/07/25 11:04:22;;;;;;;17.77;16.67;;;21.90;99.90;;;;;;5032594;28;20025;-78
2023/07/25 11:06:51;;;;;;;17.85;16.70;;;21.90;99.90;;;;;;5032440;28;20021;-78
2023/07/25 11:09:17;;;;;;;22.23;20.75;;;22.20;99.90;;;;;;5032844;28;20060;-78
2023/07/25 11:11:45;;;;;;;18.35;16.98;;;22.50;99.90;;;;;;5031140;28;20037;-77
2023/07/25 11:14:17;;;;;;;16.20;15.15;;;22.60;99.90;;;;;;5032856;28;20049;-77
2023/07/25 11:16:45;;;;;;;16.23;15.02;;;22.70;99.90;;;;;;5031534;28;20041;-77
2023/07/25 11:19:12;;;;;;;14.45;13.38;;;22.70;99.90;;;;;;5030960;28;20034;-77
2023/07/25 11:21:43;;;;;;;12.88;12.15;;;22.80;99.90;;;;;;5033198;28;20054;-78
2023/07/25 11:24:09;;;;;;;10.70;9.88;;;22.90;99.90;;;;;;5036487;28;20022;-78
2023/07/25 11:26:37;;;;;;;15.35;14.18;;;23.10;99.90;;;;;;5034791;28;20037;-78
2023/07/25 11:29:04;;;;;;;17.85;11.38;;;23.30;99.90;;;;;;5036243;28;20021;-77
2023/07/25 11:31:30;;;;;;;11.15;10.35;;;23.40;99.90;;;;;;5035550;28;20030;-76
2023/07/25 11:33:56;;;;;;;14.55;13.50;;;23.20;99.90;;;;;;5036166;28;20037;-76
2023/07/25 11:36:22;;;;;;;16.75;15.38;;;22.80;99.90;;;;;;5036376;28;20052;-78
2023/07/25 11:38:48;;;;;;;13.95;13.05;;;22.70;99.90;;;;;;5036111;28;20026;-79
2023/07/25 11:41:15;;;;;;;12.23;10.98;;;22.70;99.90;;;;;;5036017;28;20037;-77
2023/07/25 11:43:41;;;;;;;11.52;10.60;;;22.80;99.90;;;;;;5034779;28;20176;-77
2023/07/25 11:46:07;;;;;;;10.07;9.20;;;23.00;99.90;;;;;;5017656;28;20029;-77
2023/07/25 11:48:33;;;;;;;10.07;9.27;;;23.20;99.90;;;;;;5035857;28;20029;-77
2023/07/25 11:50:59;;;;;;;11.38;10.63;;;23.40;99.90;;;;;;5036101;28;20394;-78
2023/07/25 11:53:26;;;;;;;9.43;8.73;;;23.60;99.90;;;;;;5034127;28;20037;-78
2023/07/25 11:55:53;;;;;;;8.45;7.85;;;23.70;99.90;;;;;;5034627;28;20040;-78
2023/07/25 11:58:19;;;;;;;9.73;9.00;;;23.80;99.60;;;;;;5034222;28;20037;-78
2023/07/25 12:00:51;;;;;;;9.50;8.80;;;24.00;99.90;;;;;;5035137;28;20410;-78
2023/07/25 12:03:18;;;;;;;10.48;9.52;;;23.90;99.70;;;;;;5035558;28;20395;-77
2023/07/25 12:05:54;;;;;;;12.15;11.48;;;23.90;99.90;;;;;;5035808;28;20462;-78
2023/07/25 12:08:33;;;;;;;10.82;10.13;;;24.00;99.90;;;;;;5035949;28;20048;-78
2023/07/25 12:11:03;;;;;;;9.68;9.07;;;24.00;99.90;;;;;;5035802;28;20509;-77
2023/07/25 12:13:30;;;;;;;8.90;8.25;;;24.10;99.90;;;;;;5034046;28;20037;-78
2023/07/25 12:15:57;;;;;;;9.73;9.13;;;24.30;99.40;;;;;;5034923;28;20034;-78
2023/07/25 12:18:35;;;;;;;10.40;9.45;;;24.40;99.60;;;;;;5035449;28;20021;-78
2023/07/25 12:21:03;;;;;;;10.25;9.52;;;24.60;99.30;;;;;;5035925;28;20517;-78
2023/07/25 12:23:30;;;;;;;11.05;10.35;;;24.80;97.70;;;;;;5034210;28;20022;-77
2023/07/25 12:25:56;;;;;;;20.33;14.77;;;24.60;95.80;;;;;;5035214;28;20363;-78
2023/07/25 12:28:22;;;;;;;32.05;30.15;;;24.00;98.20;;;;;;5034870;28;20044;-77
2023/07/25 12:30:49;;;;;;;35.33;33.10;;;23.40;99.90;;;;;;5034882;28;20033;-77
2023/07/25 12:33:15;;;;;;;36.00;33.70;;;22.90;99.90;;;;;;5032629;28;20029;-76